sensor_id;sensor_type;location;lat;lon;timestamp;pressure;altitude;pressure_sealevel;temperature;humidity
7524;BME280;3803;51.666;7.630;2023-08-01T00:00:11;99362.97;;;18.41;74.34
7524;BME280;3803;51.666;7.630;2023-08-01T00:00:31;99362.03;;;18.44;74.29
7524;BME280;3803;51.666;7.630;2023-08-01T00:00:52;99355.06;;;18.40;74.44
7524;BME280;3803;51.666;7.630;2023-08-01T00:01:14;99359.44;;;18.41;74.28
7524;BME280;3803;51.666;7.630;2023-08-01T00:01:34;99368.13;;;18.46;74.30
7524;BME280;3803;51.666;7.630;2023-08-01T00:01:55;99349.81;;;18.38;74.44
7524;BME280;3803;51.666;7.630;2023-08-01T00:02:16;99356.81;;;18.41;74.43
7524;BME280;3803;51.666;7.630;2023-08-01T00:02:38;99375.03;;;18.50;74.39
7524;BME280;3803;51.666;7.630;2023-08-01T00:02:58;99351.59;;;18.39;74.46
7524;BME280;3803;51.666;7.630;2023-08-01T00:03:19;99367.22;;;18.45;74.47
7524;BME280;3803;51.666;7.630;2023-08-01T00:03:40;99362.03;;;18.44;74.44
7524;BME280;3803;51.666;7.630;2023-08-01T00:04:00;99361.22;;;18.40;74.56
7524;BME280;3803;51.666;7.630;2023-08-01T00:04:21;99363.78;;;18.43;74.34
7524;BME280;3803;51.666;7.630;2023-08-01T00:04:42;99358.47;;;18.45;74.27
7524;BME280;3803;51.666;7.630;2023-08-01T00:05:03;99367.09;;;18.50;74.42
7524;BME280;3803;51.666;7.630;2023-08-01T00:05:24;99361.94;;;18.45;74.34
7524;BME280;3803;51.666;7.630;2023-08-01T00:05:45;99361.13;;;18.43;74.19
7524;BME280;3803;51.666;7.630;2023-08-01T00:06:05;99354.25;;;18.38;74.35
7524;BME280;3803;51.666;7.630;2023-08-01T00:06:26;99356.91;;;18.38;74.36
7524;BME280;3803;51.666;7.630;2023-08-01T00:06:46;99364.59;;;18.45;74.21
7524;BME280;3803;51.666;7.630;2023-08-01T00:07:07;99357.69;;;18.41;74.19
7524;BME280;3803;51.666;7.630;2023-08-01T00:07:28;99357.69;;;18.41;74.24
7524;BME280;3803;51.666;7.630;2023-08-01T00:07:49;99361.25;;;18.39;74.32
7524;BME280;3803;51.666;7.630;2023-08-01T00:08:13;99355.16;;;18.36;74.44
7524;BME280;3803;51.666;7.630;2023-08-01T00:08:34;99341.31;;;18.28;74.50
7524;BME280;3803;51.666;7.630;2023-08-01T00:08:55;99348.22;;;18.32;74.58
7524;BME280;3803;51.666;7.630;2023-08-01T00:09:15;99347.28;;;18.35;74.58
7524;BME280;3803;51.666;7.630;2023-08-01T00:09:36;99347.31;;;18.33;74.66
7524;BME280;3803;51.666;7.630;2023-08-01T00:09:57;99344.66;;;18.33;74.50
7524;BME280;3803;51.666;7.630;2023-08-01T00:10:17;99355.06;;;18.40;74.50
7524;BME280;3803;51.666;7.630;2023-08-01T00:10:38;99357.69;;;18.41;74.69
7524;BME280;3803;51.666;7.630;2023-08-01T00:10:59;99355.94;;;18.40;74.42
7524;BME280;3803;51.666;7.630;2023-08-01T00:11:19;99339.38;;;18.33;74.63
7524;BME280;3803;51.666;7.630;2023-08-01T00:11:40;99338.44;;;18.36;74.55
7524;BME280;3803;51.666;7.630;2023-08-01T00:12:01;99338.41;;;18.38;74.46
7524;BME280;3803;51.666;7.630;2023-08-01T00:12:24;99330.56;;;18.34;74.51
7524;BME280;3803;51.666;7.630;2023-08-01T00:12:45;99342.75;;;18.40;74.51
7524;BME280;3803;51.666;7.630;2023-08-01T00:13:05;99327.88;;;18.36;74.72
7524;BME280;3803;51.666;7.630;2023-08-01T00:13:26;99330.38;;;18.41;74.56
7524;BME280;3803;51.666;7.630;2023-08-01T00:13:46;99335.59;;;18.44;74.67
7524;BME280;3803;51.666;7.630;2023-08-01T00:14:07;99333.03;;;18.41;74.66
7524;BME280;3803;51.666;7.630;2023-08-01T00:14:28;99328.75;;;18.36;74.54
7524;BME280;3803;51.666;7.630;2023-08-01T00:14:48;99314.72;;;18.34;74.62
7524;BME280;3803;51.666;7.630;2023-08-01T00:15:09;99319.81;;;18.41;74.43
7524;BME280;3803;51.666;7.630;2023-08-01T00:15:30;99338.94;;;18.50;74.61
7524;BME280;3803;51.666;7.630;2023-08-01T00:15:50;99330.31;;;18.44;74.57
7524;BME280;3803;51.666;7.630;2023-08-01T00:16:11;99322.44;;;18.42;74.45
7524;BME280;3803;51.666;7.630;2023-08-01T00:16:32;99326.84;;;18.42;74.53
7524;BME280;3803;51.666;7.630;2023-08-01T00:16:53;99319.03;;;18.37;74.42
7524;BME280;3803;51.666;7.630;2023-08-01T00:17:14;99331.13;;;18.46;74.39
7524;BME280;3803;51.666;7.630;2023-08-01T00:17:35;99326.84;;;18.42;74.35
7524;BME280;3803;51.666;7.630;2023-08-01T00:17:55;99344.19;;;18.52;74.29
7524;BME280;3803;51.666;7.630;2023-08-01T00:18:16;99345.91;;;18.53;74.29
7524;BME280;3803;51.666;7.630;2023-08-01T00:18:37;99349.53;;;18.49;74.27
7524;BME280;3803;51.666;7.630;2023-08-01T00:18:57;99342.59;;;18.46;74.17
7524;BME280;3803;51.666;7.630;2023-08-01T00:19:18;99340.69;;;18.50;74.20
7524;BME280;3803;51.666;7.630;2023-08-01T00:19:39;99331.16;;;18.44;74.19
7524;BME280;3803;51.666;7.630;2023-08-01T00:19:59;99326.84;;;18.42;74.31
7524;BME280;3803;51.666;7.630;2023-08-01T00:20:20;99328.59;;;18.43;74.19
7524;BME280;3803;51.666;7.630;2023-08-01T00:20:41;99312.81;;;18.40;74.26
7524;BME280;3803;51.666;7.630;2023-08-01T00:21:02;99327.59;;;18.47;74.48
7524;BME280;3803;51.666;7.630;2023-08-01T00:21:23;99318.88;;;18.43;74.33
7524;BME280;3803;51.666;7.630;2023-08-01T00:21:44;99331.09;;;18.47;74.32
7524;BME280;3803;51.666;7.630;2023-08-01T00:22:05;99324.13;;;18.45;74.39
7524;BME280;3803;51.666;7.630;2023-08-01T00:22:25;99325.03;;;18.44;74.44
7524;BME280;3803;51.666;7.630;2023-08-01T00:22:46;99332.91;;;18.45;74.34
7524;BME280;3803;51.666;7.630;2023-08-01T00:23:06;99339.81;;;18.51;74.21
7524;BME280;3803;51.666;7.630;2023-08-01T00:23:27;99330.13;;;18.50;74.38
7524;BME280;3803;51.666;7.630;2023-08-01T00:23:48;99341.44;;;18.55;74.53
7524;BME280;3803;51.666;7.630;2023-08-01T00:24:08;99341.44;;;18.55;74.38
7524;BME280;3803;51.666;7.630;2023-08-01T00:24:29;99331.97;;;18.48;74.24
7524;BME280;3803;51.666;7.630;2023-08-01T00:24:50;99328.50;;;18.46;74.15
7524;BME280;3803;51.666;7.630;2023-08-01T00:25:10;99326.84;;;18.42;74.41
7524;BME280;3803;51.666;7.630;2023-08-01T00:25:31;99339.84;;;18.49;74.32
7524;BME280;3803;51.666;7.630;2023-08-01T00:25:52;99325.97;;;18.43;74.49
7524;BME280;3803;51.666;7.630;2023-08-01T00:26:12;99323.38;;;18.40;74.39
7524;BME280;3803;51.666;7.630;2023-08-01T00:26:33;99332.91;;;18.45;74.32
7524;BME280;3803;51.666;7.630;2023-08-01T00:26:54;99332.97;;;18.44;74.31
7524;BME280;3803;51.666;7.630;2023-08-01T00:27:16;99323.31;;;18.43;74.16
7524;BME280;3803;51.666;7.630;2023-08-01T00:27:37;99323.38;;;18.40;74.33
7524;BME280;3803;51.666;7.630;2023-08-01T00:27:57;99321.53;;;18.43;74.39
7524;BME280;3803;51.666;7.630;2023-08-01T00:28:18;99315.50;;;18.38;74.24
7524;BME280;3803;51.666;7.630;2023-08-01T00:28:39;99316.47;;;18.35;74.46
7524;BME280;3803;51.666;7.630;2023-08-01T00:29:00;99320.84;;;18.36;74.47
7524;BME280;3803;51.666;7.630;2023-08-01T00:29:20;99332.13;;;18.42;74.54
7524;BME280;3803;51.666;7.630;2023-08-01T00:29:41;99324.31;;;18.37;74.42
7524;BME280;3803;51.666;7.630;2023-08-01T00:30:02;99321.75;;;18.35;74.50
7524;BME280;3803;51.666;7.630;2023-08-01T00:30:22;99328.59;;;18.43;74.43
7524;BME280;3803;51.666;7.630;2023-08-01T00:30:43;99327.03;;;18.35;74.54
7524;BME280;3803;51.666;7.630;2023-08-01T00:31:07;99325.38;;;18.31;74.57
7524;BME280;3803;51.666;7.630;2023-08-01T00:31:31;99313.88;;;18.34;74.61
7524;BME280;3803;51.666;7.630;2023-08-01T00:31:52;99311.31;;;18.31;74.64
7524;BME280;3803;51.666;7.630;2023-08-01T00:32:12;99312.91;;;18.36;74.47
7524;BME280;3803;51.666;7.630;2023-08-01T00:32:34;99318.88;;;18.43;74.61
7524;BME280;3803;51.666;7.630;2023-08-01T00:32:55;99317.13;;;18.44;74.34
7524;BME280;3803;51.666;7.630;2023-08-01T00:33:16;99310.03;;;18.44;74.43
7524;BME280;3803;51.666;7.630;2023-08-01T00:33:37;99309.13;;;18.45;74.27
7524;BME280;3803;51.666;7.630;2023-08-01T00:33:57;99298.69;;;18.41;74.30
7524;BME280;3803;51.666;7.630;2023-08-01T00:34:18;99296.91;;;18.43;74.22
7524;BME280;3803;51.666;7.630;2023-08-01T00:34:39;99292.41;;;18.46;74.22
7524;BME280;3803;51.666;7.630;2023-08-01T00:34:59;99295.13;;;18.43;74.16
7524;BME280;3803;51.666;7.630;2023-08-01T00:35:20;99294.91;;;18.51;74.31
7524;BME280;3803;51.666;7.630;2023-08-01T00:35:41;99289.69;;;18.48;74.17
7524;BME280;3803;51.666;7.630;2023-08-01T00:36:02;99299.31;;;18.50;74.27
7524;BME280;3803;51.666;7.630;2023-08-01T00:36:23;99289.66;;;18.49;74.20
7524;BME280;3803;51.666;7.630;2023-08-01T00:36:44;99301.91;;;18.52;74.41
7524;BME280;3803;51.666;7.630;2023-08-01T00:37:05;99300.19;;;18.51;74.15
7524;BME280;3803;51.666;7.630;2023-08-01T00:37:25;99298.38;;;18.53;74.24
7524;BME280;3803;51.666;7.630;2023-08-01T00:37:46;99292.44;;;18.45;74.22
7524;BME280;3803;51.666;7.630;2023-08-01T00:38:07;99292.47;;;18.43;74.25
7524;BME280;3803;51.666;7.630;2023-08-01T00:38:28;99293.25;;;18.47;74.07
7524;BME280;3803;51.666;7.630;2023-08-01T00:38:49;99298.53;;;18.47;74.27
7524;BME280;3803;51.666;7.630;2023-08-01T00:39:10;99289.78;;;18.45;74.19
7524;BME280;3803;51.666;7.630;2023-08-01T00:39:30;99304.50;;;18.54;74.25
7524;BME280;3803;51.666;7.630;2023-08-01T00:39:51;99286.41;;;18.40;73.99
7524;BME280;3803;51.666;7.630;2023-08-01T00:40:11;99287.28;;;18.40;74.14
7524;BME280;3803;51.666;7.630;2023-08-01T00:40:33;99306.31;;;18.52;74.23
7524;BME280;3803;51.666;7.630;2023-08-01T00:40:54;99298.53;;;18.47;74.34
7524;BME280;3803;51.666;7.630;2023-08-01T00:41:15;99302.88;;;18.49;74.15
7524;BME280;3803;51.666;7.630;2023-08-01T00:41:36;99301.19;;;18.47;74.18
7524;BME280;3803;51.666;7.630;2023-08-01T00:41:56;99291.63;;;18.43;74.18
7524;BME280;3803;51.666;7.630;2023-08-01T00:42:17;99288.91;;;18.44;73.98
7524;BME280;3803;51.666;7.630;2023-08-01T00:42:38;99291.34;;;18.52;74.03
7524;BME280;3803;51.666;7.630;2023-08-01T00:42:59;99281.00;;;18.44;74.13
7524;BME280;3803;51.666;7.630;2023-08-01T00:43:20;99284.47;;;18.46;74.13
7524;BME280;3803;51.666;7.630;2023-08-01T00:43:40;99284.41;;;18.48;74.35
7524;BME280;3803;51.666;7.630;2023-08-01T00:44:01;99284.34;;;18.51;74.26
7524;BME280;3803;51.666;7.630;2023-08-01T00:44:22;99286.00;;;18.54;74.15
7524;BME280;3803;51.666;7.630;2023-08-01T00:44:43;99285.16;;;18.53;74.04
7524;BME280;3803;51.666;7.630;2023-08-01T00:45:04;99285.91;;;18.58;74.02
7524;BME280;3803;51.666;7.630;2023-08-01T00:45:28;99273.78;;;18.51;74.15
7524;BME280;3803;51.666;7.630;2023-08-01T00:45:51;99291.22;;;18.57;74.07
7524;BME280;3803;51.666;7.630;2023-08-01T00:46:12;99289.53;;;18.54;73.73
7524;BME280;3803;51.666;7.630;2023-08-01T00:46:33;99279.06;;;18.51;74.03
7524;BME280;3803;51.666;7.630;2023-08-01T00:46:54;99285.97;;;18.55;74.01
7524;BME280;3803;51.666;7.630;2023-08-01T00:47:15;99286.06;;;18.52;73.98
7524;BME280;3803;51.666;7.630;2023-08-01T00:47:35;99279.00;;;18.53;74.02
7524;BME280;3803;51.666;7.630;2023-08-01T00:47:56;99286.84;;;18.56;74.23
7524;BME280;3803;51.666;7.630;2023-08-01T00:48:17;99276.41;;;18.51;73.88
7524;BME280;3803;51.666;7.630;2023-08-01T00:48:39;99286.84;;;18.56;74.00
7524;BME280;3803;51.666;7.630;2023-08-01T00:49:00;99272.91;;;18.50;73.90
7524;BME280;3803;51.666;7.630;2023-08-01T00:49:21;99277.31;;;18.50;74.05
7524;BME280;3803;51.666;7.630;2023-08-01T00:49:42;99273.69;;;18.54;73.98
7524;BME280;3803;51.666;7.630;2023-08-01T00:50:03;99283.28;;;18.57;73.66
7524;BME280;3803;51.666;7.630;2023-08-01T00:50:24;99273.69;;;18.54;73.95
7524;BME280;3803;51.666;7.630;2023-08-01T00:50:45;99272.88;;;18.52;73.90
7524;BME280;3803;51.666;7.630;2023-08-01T00:51:07;99280.56;;;18.60;73.74
7524;BME280;3803;51.666;7.630;2023-08-01T00:51:31;99270.13;;;18.55;73.78
7524;BME280;3803;51.666;7.630;2023-08-01T00:51:52;99260.56;;;18.51;73.78
7524;BME280;3803;51.666;7.630;2023-08-01T00:52:13;99280.63;;;18.58;73.74
7524;BME280;3803;51.666;7.630;2023-08-01T00:52:34;99268.41;;;18.54;73.87
7524;BME280;3803;51.666;7.630;2023-08-01T00:52:55;99274.41;;;18.59;73.76
7524;BME280;3803;51.666;7.630;2023-08-01T00:53:17;99277.97;;;18.58;73.83
7524;BME280;3803;51.666;7.630;2023-08-01T00:53:39;99278.19;;;18.50;73.77
7524;BME280;3803;51.666;7.630;2023-08-01T00:54:00;99271.06;;;18.53;73.86
7524;BME280;3803;51.666;7.630;2023-08-01T00:54:21;99266.72;;;18.52;73.88
7524;BME280;3803;51.666;7.630;2023-08-01T00:54:41;99277.09;;;18.58;73.57
7524;BME280;3803;51.666;7.630;2023-08-01T00:55:02;99280.63;;;18.58;74.02
7524;BME280;3803;51.666;7.630;2023-08-01T00:55:23;99273.69;;;18.54;73.79
7524;BME280;3803;51.666;7.630;2023-08-01T00:55:45;99287.53;;;18.62;73.82
7524;BME280;3803;51.666;7.630;2023-08-01T00:56:06;99275.34;;;18.58;73.91
7524;BME280;3803;51.666;7.630;2023-08-01T00:56:26;99280.34;;;18.68;73.81
7524;BME280;3803;51.666;7.630;2023-08-01T00:56:47;99276.03;;;18.63;73.82
7524;BME280;3803;51.666;7.630;2023-08-01T00:57:08;99271.69;;;18.62;73.66
7524;BME280;3803;51.666;7.630;2023-08-01T00:57:30;99266.50;;;18.59;73.71
7524;BME280;3803;51.666;7.630;2023-08-01T00:57:52;99269.13;;;18.59;73.56
7524;BME280;3803;51.666;7.630;2023-08-01T00:58:13;99266.41;;;18.62;73.71
7524;BME280;3803;51.666;7.630;2023-08-01T00:58:33;99273.41;;;18.63;73.40
7524;BME280;3803;51.666;7.630;2023-08-01T00:58:54;99268.22;;;18.60;73.61
7524;BME280;3803;51.666;7.630;2023-08-01T00:59:15;99268.28;;;18.57;73.68
7524;BME280;3803;51.666;7.630;2023-08-01T00:59:36;99274.28;;;18.64;73.74
7524;BME280;3803;51.666;7.630;2023-08-01T00:59:57;99275.25;;;18.61;73.88
7524;BME280;3803;51.666;7.630;2023-08-01T01:00:18;99272.69;;;18.58;73.84
7524;BME280;3803;51.666;7.630;2023-08-01T01:00:38;99267.41;;;18.58;73.64
7524;BME280;3803;51.666;7.630;2023-08-01T01:00:59;99278.56;;;18.68;73.62
7524;BME280;3803;51.666;7.630;2023-08-01T01:01:20;99272.56;;;18.63;73.70
7524;BME280;3803;51.666;7.630;2023-08-01T01:01:41;99266.41;;;18.62;73.55
7524;BME280;3803;51.666;7.630;2023-08-01T01:02:02;99287.25;;;18.72;73.77
7524;BME280;3803;51.666;7.630;2023-08-01T01:02:23;99277.75;;;18.66;73.50
7524;BME280;3803;51.666;7.630;2023-08-01T01:02:44;99285.63;;;18.68;73.52
7524;BME280;3803;51.666;7.630;2023-08-01T01:03:05;99282.06;;;18.69;73.31
7524;BME280;3803;51.666;7.630;2023-08-01T01:03:26;99274.28;;;18.64;73.56
7524;BME280;3803;51.666;7.630;2023-08-01T01:03:47;99269.94;;;18.61;73.51
7524;BME280;3803;51.666;7.630;2023-08-01T01:04:08;99279.56;;;18.64;73.71
7524;BME280;3803;51.666;7.630;2023-08-01T01:04:29;99278.63;;;18.67;73.60
7524;BME280;3803;51.666;7.630;2023-08-01T01:04:50;99272.56;;;18.63;73.52
7524;BME280;3803;51.666;7.630;2023-08-01T01:05:11;99270.78;;;18.62;73.67
7524;BME280;3803;51.666;7.630;2023-08-01T01:05:36;99273.25;;;18.68;73.58
7524;BME280;3803;51.666;7.630;2023-08-01T01:06:31;99273.22;;;18.70;73.56
7524;BME280;3803;51.666;7.630;2023-08-01T01:07:06;99266.22;;;18.69;73.63
7524;BME280;3803;51.666;7.630;2023-08-01T01:07:28;99277.47;;;18.75;73.30
7524;BME280;3803;51.666;7.630;2023-08-01T01:07:49;99279.25;;;18.75;73.32
7524;BME280;3803;51.666;7.630;2023-08-01T01:08:10;99263.72;;;18.64;73.63
7524;BME280;3803;51.666;7.630;2023-08-01T01:08:31;99266.41;;;18.62;73.52
7524;BME280;3803;51.666;7.630;2023-08-01T01:08:52;99261.09;;;18.62;73.46
7524;BME280;3803;51.666;7.630;2023-08-01T01:09:15;99268.91;;;18.67;73.50
7524;BME280;3803;51.666;7.630;2023-08-01T01:09:36;99264.56;;;18.64;73.37
7524;BME280;3803;51.666;7.630;2023-08-01T01:10:00;99258.44;;;18.64;73.33
7524;BME280;3803;51.666;7.630;2023-08-01T01:10:21;99254.91;;;18.63;73.59
7524;BME280;3803;51.666;7.630;2023-08-01T01:10:41;99260.16;;;18.65;73.56
7524;BME280;3803;51.666;7.630;2023-08-01T01:11:02;99259.28;;;18.64;73.39
7524;BME280;3803;51.666;7.630;2023-08-01T01:11:24;99254.00;;;18.64;73.48
7524;BME280;3803;51.666;7.630;2023-08-01T01:11:45;99248.63;;;18.68;73.51
7524;BME280;3803;51.666;7.630;2023-08-01T01:12:07;99252.97;;;18.70;73.38
7524;BME280;3803;51.666;7.630;2023-08-01T01:12:27;99259.97;;;18.71;73.33
7524;BME280;3803;51.666;7.630;2023-08-01T01:12:48;99260.78;;;18.73;73.37
7524;BME280;3803;51.666;7.630;2023-08-01T01:13:10;99254.63;;;18.73;73.22
7524;BME280;3803;51.666;7.630;2023-08-01T01:13:31;99255.53;;;18.72;73.52
7524;BME280;3803;51.666;7.630;2023-08-01T01:13:52;99255.53;;;18.72;73.26
7524;BME280;3803;51.666;7.630;2023-08-01T01:14:13;99264.19;;;18.79;73.21
7524;BME280;3803;51.666;7.630;2023-08-01T01:14:35;99249.56;;;18.67;73.30
7524;BME280;3803;51.666;7.630;2023-08-01T01:14:56;99247.75;;;18.67;73.24
7524;BME280;3803;51.666;7.630;2023-08-01T01:15:17;99258.28;;;18.69;73.37
7524;BME280;3803;51.666;7.630;2023-08-01T01:15:38;99252.84;;;18.75;73.27
7524;BME280;3803;51.666;7.630;2023-08-01T01:15:58;99253.94;;;18.68;73.39
7524;BME280;3803;51.666;7.630;2023-08-01T01:16:20;99253.81;;;18.71;73.37
7524;BME280;3803;51.666;7.630;2023-08-01T01:16:40;99249.56;;;18.67;73.17
7524;BME280;3803;51.666;7.630;2023-08-01T01:17:01;99246.03;;;18.66;73.36
7524;BME280;3803;51.666;7.630;2023-08-01T01:17:22;99256.44;;;18.72;73.28
7524;BME280;3803;51.666;7.630;2023-08-01T01:17:43;99250.25;;;18.72;73.42
7524;BME280;3803;51.666;7.630;2023-08-01T01:18:04;99244.31;;;18.65;73.36
7524;BME280;3803;51.666;7.630;2023-08-01T01:18:24;99259.13;;;18.69;73.37
7524;BME280;3803;51.666;7.630;2023-08-01T01:18:45;99256.56;;;18.68;73.38
7524;BME280;3803;51.666;7.630;2023-08-01T01:19:09;99255.66;;;18.69;73.44
7524;BME280;3803;51.666;7.630;2023-08-01T01:19:30;99254.94;;;18.62;73.29
7524;BME280;3803;51.666;7.630;2023-08-01T01:19:51;99255.81;;;18.62;73.42
7524;BME280;3803;51.666;7.630;2023-08-01T01:20:11;99259.34;;;18.63;73.43
7524;BME280;3803;51.666;7.630;2023-08-01T01:20:35;99268.81;;;18.70;73.70
7524;BME280;3803;51.666;7.630;2023-08-01T01:20:56;99248.03;;;18.58;73.41
7524;BME280;3803;51.666;7.630;2023-08-01T01:21:17;99253.28;;;18.59;73.63
7524;BME280;3803;51.666;7.630;2023-08-01T01:21:39;99251.59;;;18.57;73.75
7524;BME280;3803;51.666;7.630;2023-08-01T01:22:02;99254.19;;;18.58;73.68
7524;BME280;3803;51.666;7.630;2023-08-01T01:22:24;99257.72;;;18.57;73.48
7524;BME280;3803;51.666;7.630;2023-08-01T01:22:45;99268.22;;;18.60;73.53
7524;BME280;3803;51.666;7.630;2023-08-01T01:23:08;99259.50;;;18.58;73.86
7524;BME280;3803;51.666;7.630;2023-08-01T01:23:29;99257.94;;;18.51;73.70
7524;BME280;3803;51.666;7.630;2023-08-01T01:23:51;99242.16;;;18.48;73.65
7524;BME280;3803;51.666;7.630;2023-08-01T01:24:13;99247.38;;;18.51;73.86
7524;BME280;3803;51.666;7.630;2023-08-01T01:24:35;99244.59;;;18.56;74.05
7524;BME280;3803;51.666;7.630;2023-08-01T01:24:57;99248.97;;;18.57;73.72
7524;BME280;3803;51.666;7.630;2023-08-01T01:25:20;99243.63;;;18.58;74.03
7524;BME280;3803;51.666;7.630;2023-08-01T01:25:42;99241.97;;;18.54;73.64
7524;BME280;3803;51.666;7.630;2023-08-01T01:26:03;99258.38;;;18.66;73.88
7524;BME280;3803;51.666;7.630;2023-08-01T01:26:25;99257.47;;;18.67;73.83
7524;BME280;3803;51.666;7.630;2023-08-01T01:26:47;99241.06;;;18.55;73.86
7524;BME280;3803;51.666;7.630;2023-08-01T01:27:09;99242.75;;;18.58;73.70
7524;BME280;3803;51.666;7.630;2023-08-01T01:27:30;99254.00;;;18.64;73.65
7524;BME280;3803;51.666;7.630;2023-08-01T01:27:52;99233.91;;;18.59;73.60
7524;BME280;3803;51.666;7.630;2023-08-01T01:28:14;99250.50;;;18.64;73.34
7524;BME280;3803;51.666;7.630;2023-08-01T01:28:36;99238.44;;;18.55;73.63
7524;BME280;3803;51.666;7.630;2023-08-01T01:28:57;99241.88;;;18.57;73.76
7524;BME280;3803;51.666;7.630;2023-08-01T01:29:19;99231.41;;;18.54;73.45
7524;BME280;3803;51.666;7.630;2023-08-01T01:29:42;99221.91;;;18.48;73.59
7524;BME280;3803;51.666;7.630;2023-08-01T01:30:06;99248.03;;;18.58;73.67
7524;BME280;3803;51.666;7.630;2023-08-01T01:30:28;99243.72;;;18.55;73.81
7524;BME280;3803;51.666;7.630;2023-08-01T01:30:51;99253.22;;;18.61;73.65
7524;BME280;3803;51.666;7.630;2023-08-01T01:31:13;99235.75;;;18.57;73.79
7524;BME280;3803;51.666;7.630;2023-08-01T01:31:36;99241.97;;;18.54;73.76
7524;BME280;3803;51.666;7.630;2023-08-01T01:31:59;99241.09;;;18.54;73.85
7524;BME280;3803;51.666;7.630;2023-08-01T01:32:20;99235.97;;;18.49;74.05
7524;BME280;3803;51.666;7.630;2023-08-01T01:32:41;99248.91;;;18.58;73.90
7524;BME280;3803;51.666;7.630;2023-08-01T01:33:02;99233.25;;;18.52;73.98
7524;BME280;3803;51.666;7.630;2023-08-01T01:33:24;99230.69;;;18.49;73.74
7524;BME280;3803;51.666;7.630;2023-08-01T01:33:45;99241.94;;;18.56;74.03
7524;BME280;3803;51.666;7.630;2023-08-01T01:34:07;99223.66;;;18.48;73.89
7524;BME280;3803;51.666;7.630;2023-08-01T01:34:28;99228.03;;;18.49;73.91
7524;BME280;3803;51.666;7.630;2023-08-01T01:34:49;99230.53;;;18.54;73.93
7524;BME280;3803;51.666;7.630;2023-08-01T01:35:09;99241.81;;;18.60;73.98
7524;BME280;3803;51.666;7.630;2023-08-01T01:35:33;99231.41;;;18.54;73.96
7524;BME280;3803;51.666;7.630;2023-08-01T01:35:56;99218.47;;;18.46;73.89
7524;BME280;3803;51.666;7.630;2023-08-01T01:36:17;99230.53;;;18.54;73.92
7524;BME280;3803;51.666;7.630;2023-08-01T01:36:37;99235.66;;;18.60;73.83
7524;BME280;3803;51.666;7.630;2023-08-01T01:37:00;99232.38;;;18.52;73.87
7524;BME280;3803;51.666;7.630;2023-08-01T01:37:21;99221.75;;;18.53;73.81
7524;BME280;3803;51.666;7.630;2023-08-01T01:37:41;99227.00;;;18.55;73.86
7524;BME280;3803;51.666;7.630;2023-08-01T01:38:02;99221.75;;;18.53;73.88
7524;BME280;3803;51.666;7.630;2023-08-01T01:38:26;99223.50;;;18.54;73.73
7524;BME280;3803;51.666;7.630;2023-08-01T01:38:47;99225.19;;;18.57;73.80
7524;BME280;3803;51.666;7.630;2023-08-01T01:39:08;99225.22;;;18.55;73.82
7524;BME280;3803;51.666;7.630;2023-08-01T01:39:29;99228.75;;;18.56;73.56
7524;BME280;3803;51.666;7.630;2023-08-01T01:39:50;99233.06;;;18.58;73.81
7524;BME280;3803;51.666;7.630;2023-08-01T01:40:10;99227.88;;;18.55;73.94
7524;BME280;3803;51.666;7.630;2023-08-01T01:40:32;99235.56;;;18.63;73.85
7524;BME280;3803;51.666;7.630;2023-08-01T01:40:53;99226.91;;;18.58;73.58
7524;BME280;3803;51.666;7.630;2023-08-01T01:41:14;99235.56;;;18.63;73.58
7524;BME280;3803;51.666;7.630;2023-08-01T01:41:34;99218.97;;;18.58;73.56
7524;BME280;3803;51.666;7.630;2023-08-01T01:41:55;99234.69;;;18.62;73.74
7524;BME280;3803;51.666;7.630;2023-08-01T01:42:16;99217.41;;;18.52;73.68
7524;BME280;3803;51.666;7.630;2023-08-01T01:42:36;99234.69;;;18.62;73.87
7524;BME280;3803;51.666;7.630;2023-08-01T01:42:58;99222.56;;;18.55;73.96
7524;BME280;3803;51.666;7.630;2023-08-01T01:43:19;99217.41;;;18.52;73.72
7524;BME280;3803;51.666;7.630;2023-08-01T01:43:39;99218.25;;;18.53;74.04
7524;BME280;3803;51.666;7.630;2023-08-01T01:44:01;99219.97;;;18.54;73.77
7524;BME280;3803;51.666;7.630;2023-08-01T01:44:22;99212.94;;;18.54;73.82
7524;BME280;3803;51.666;7.630;2023-08-01T01:44:42;99212.00;;;18.55;73.89
7524;BME280;3803;51.666;7.630;2023-08-01T01:45:03;99214.78;;;18.50;73.90
7524;BME280;3803;51.666;7.630;2023-08-01T01:45:24;99198.19;;;18.47;73.78
7524;BME280;3803;51.666;7.630;2023-08-01T01:45:45;99208.56;;;18.53;73.69
7524;BME280;3803;51.666;7.630;2023-08-01T01:46:05;99218.06;;;18.59;73.79
7524;BME280;3803;51.666;7.630;2023-08-01T01:46:26;99218.19;;;18.56;73.85
7524;BME280;3803;51.666;7.630;2023-08-01T01:46:47;99217.22;;;18.58;73.82
7524;BME280;3803;51.666;7.630;2023-08-01T01:47:10;99207.19;;;18.40;74.07
7524;BME280;3803;51.666;7.630;2023-08-01T01:47:31;99214.28;;;18.38;74.31
7524;BME280;3803;51.666;7.630;2023-08-01T01:47:52;99224.56;;;18.48;74.27
7524;BME280;3803;51.666;7.630;2023-08-01T01:48:12;99206.09;;;18.47;74.19
7524;BME280;3803;51.666;7.630;2023-08-01T01:48:33;99216.38;;;18.56;73.95
7524;BME280;3803;51.666;7.630;2023-08-01T01:48:53;99223.25;;;18.62;73.81
7524;BME280;3803;51.666;7.630;2023-08-01T01:49:14;99205.81;;;18.56;73.93
7524;BME280;3803;51.666;7.630;2023-08-01T01:49:35;99217.25;;;18.57;73.90
7524;BME280;3803;51.666;7.630;2023-08-01T01:49:55;99219.91;;;18.57;73.84
7524;BME280;3803;51.666;7.630;2023-08-01T01:50:16;99211.94;;;18.58;73.80
7524;BME280;3803;51.666;7.630;2023-08-01T01:50:38;99204.09;;;18.55;73.87
7524;BME280;3803;51.666;7.630;2023-08-01T01:50:59;99205.75;;;18.59;73.76
7524;BME280;3803;51.666;7.630;2023-08-01T01:51:21;99191.75;;;18.56;73.64
7524;BME280;3803;51.666;7.630;2023-08-01T01:51:41;99199.63;;;18.57;73.81
7524;BME280;3803;51.666;7.630;2023-08-01T01:52:02;99202.19;;;18.60;73.71
7524;BME280;3803;51.666;7.630;2023-08-01T01:52:23;99190.88;;;18.55;73.67
7524;BME280;3803;51.666;7.630;2023-08-01T01:52:45;99199.56;;;18.59;73.69
7524;BME280;3803;51.666;7.630;2023-08-01T01:53:05;99202.13;;;18.62;73.78
7524;BME280;3803;51.666;7.630;2023-08-01T01:53:26;99202.22;;;18.59;73.85
7524;BME280;3803;51.666;7.630;2023-08-01T01:53:47;99197.81;;;18.59;73.78
7524;BME280;3803;51.666;7.630;2023-08-01T01:54:08;99197.03;;;18.56;73.66
7524;BME280;3803;51.666;7.630;2023-08-01T01:54:28;99192.72;;;18.53;73.58
7524;BME280;3803;51.666;7.630;2023-08-01T01:54:49;99203.00;;;18.62;73.73
7524;BME280;3803;51.666;7.630;2023-08-01T01:55:10;99196.94;;;18.59;73.86
7524;BME280;3803;51.666;7.630;2023-08-01T01:55:31;99189.97;;;18.56;73.66
7524;BME280;3803;51.666;7.630;2023-08-01T01:55:54;99189.06;;;18.57;73.77